sensor_id;sensor_type;location;lat;lon;timestamp;temperature;humidity
6690;DHT22;3382;51.576;8.076;2022-09-27T00:00:31;13.00;99.90
6690;DHT22;3382;51.576;8.076;2022-09-27T00:02:57;12.90;99.90
6690;DHT22;3382;51.576;8.076;2022-09-27T00:05:22;13.00;99.90
6690;DHT22;3382;51.576;8.076;2022-09-27T00:07:48;12.90;99.90
6690;DHT22;3382;51.576;8.076;2022-09-27T00:10:14;12.90;99.90
6690;DHT22;3382;51.576;8.076;2022-09-27T00:12:40;12.90;99.90
6690;DHT22;3382;51.576;8.076;2022-09-27T00:15:07;12.90;99.90
6690;DHT22;3382;51.576;8.076;2022-09-27T00:17:34;12.90;99.90
6690;DHT22;3382;51.576;8.076;2022-09-27T00:20:00;12.90;99.90
6690;DHT22;3382;51.576;8.076;2022-09-27T00:22:27;12.90;99.90
6690;DHT22;3382;51.576;8.076;2022-09-27T00:24:53;13.00;99.90
6690;DHT22;3382;51.576;8.076;2022-09-27T00:27:19;13.00;99.90
6690;DHT22;3382;51.576;8.076;2022-09-27T00:29:45;13.00;99.90
6690;DHT22;3382;51.576;8.076;2022-09-27T00:32:13;13.00;99.90
6690;DHT22;3382;51.576;8.076;2022-09-27T00:34:39;13.00;99.90
6690;DHT22;3382;51.576;8.076;2022-09-27T00:37:06;12.90;99.90
6690;DHT22;3382;51.576;8.076;2022-09-27T00:39:32;13.00;99.90
6690;DHT22;3382;51.576;8.076;2022-09-27T00:41:57;13.10;99.90
6690;DHT22;3382;51.576;8.076;2022-09-27T00:49:48;13.10;99.90
6690;DHT22;3382;51.576;8.076;2022-09-27T00:52:28;13.20;99.90
6690;DHT22;3382;51.576;8.076;2022-09-27T00:55:06;13.20;99.90
6690;DHT22;3382;51.576;8.076;2022-09-27T00:57:34;13.20;99.90
6690;DHT22;3382;51.576;8.076;2022-09-27T01:00:06;13.20;99.90
6690;DHT22;3382;51.576;8.076;2022-09-27T01:02:34;13.30;99.90
6690;DHT22;3382;51.576;8.076;2022-09-27T01:05:00;13.30;99.90
6690;DHT22;3382;51.576;8.076;2022-09-27T01:07:27;13.40;99.90
6690;DHT22;3382;51.576;8.076;2022-09-27T01:09:52;13.30;99.90
6690;DHT22;3382;51.576;8.076;2022-09-27T01:15:14;13.40;99.90
6690;DHT22;3382;51.576;8.076;2022-09-27T01:31:14;13.20;99.90
6690;DHT22;3382;51.576;8.076;2022-09-27T01:44:51;13.00;99.90
6690;DHT22;3382;51.576;8.076;2022-09-27T01:47:22;13.00;99.90
6690;DHT22;3382;51.576;8.076;2022-09-27T01:50:03;13.00;99.90
6690;DHT22;3382;51.576;8.076;2022-09-27T01:52:46;12.90;99.90
6690;DHT22;3382;51.576;8.076;2022-09-27T01:55:14;12.90;99.90
6690;DHT22;3382;51.576;8.076;2022-09-27T01:57:47;13.00;99.90
6690;DHT22;3382;51.576;8.076;2022-09-27T02:00:14;13.00;99.90
6690;DHT22;3382;51.576;8.076;2022-09-27T02:02:50;13.10;99.90
6690;DHT22;3382;51.576;8.076;2022-09-27T02:05:18;13.10;99.90
6690;DHT22;3382;51.576;8.076;2022-09-27T02:07:52;13.10;99.90
6690;DHT22;3382;51.576;8.076;2022-09-27T02:10:25;13.10;99.90
6690;DHT22;3382;51.576;8.076;2022-09-27T02:13:20;13.00;99.90
6690;DHT22;3382;51.576;8.076;2022-09-27T02:18:55;13.10;99.90
6690;DHT22;3382;51.576;8.076;2022-09-27T02:21:36;13.00;99.90
6690;DHT22;3382;51.576;8.076;2022-09-27T02:24:03;13.00;99.90
6690;DHT22;3382;51.576;8.076;2022-09-27T02:26:40;13.10;99.90
6690;DHT22;3382;51.576;8.076;2022-09-27T02:29:08;13.10;99.90
6690;DHT22;3382;51.576;8.076;2022-09-27T02:31:36;13.10;99.90
6690;DHT22;3382;51.576;8.076;2022-09-27T02:34:05;13.20;99.90
6690;DHT22;3382;51.576;8.076;2022-09-27T02:36:32;13.50;99.90
6690;DHT22;3382;51.576;8.076;2022-09-27T02:38:58;13.50;99.90
6690;DHT22;3382;51.576;8.076;2022-09-27T02:41:24;13.50;99.90
6690;DHT22;3382;51.576;8.076;2022-09-27T02:43:57;13.40;99.90
6690;DHT22;3382;51.576;8.076;2022-09-27T03:01:17;13.00;99.90
6690;DHT22;3382;51.576;8.076;2022-09-27T03:06:46;13.10;99.90
6690;DHT22;3382;51.576;8.076;2022-09-27T03:11:44;13.10;99.90
6690;DHT22;3382;51.576;8.076;2022-09-27T03:14:10;13.10;99.90
6690;DHT22;3382;51.576;8.076;2022-09-27T03:16:36;13.20;99.90
6690;DHT22;3382;51.576;8.076;2022-09-27T03:19:01;13.20;99.90
6690;DHT22;3382;51.576;8.076;2022-09-27T03:21:27;13.20;99.90
6690;DHT22;3382;51.576;8.076;2022-09-27T03:23:53;13.10;99.90
6690;DHT22;3382;51.576;8.076;2022-09-27T03:26:19;13.10;99.90
6690;DHT22;3382;51.576;8.076;2022-09-27T03:28:45;13.00;99.90
6690;DHT22;3382;51.576;8.076;2022-09-27T03:31:11;13.00;99.90
6690;DHT22;3382;51.576;8.076;2022-09-27T03:33:36;13.00;99.90
6690;DHT22;3382;51.576;8.076;2022-09-27T03:36:02;13.00;99.90
6690;DHT22;3382;51.576;8.076;2022-09-27T03:38:28;13.00;99.90
6690;DHT22;3382;51.576;8.076;2022-09-27T03:40:54;12.90;99.90
6690;DHT22;3382;51.576;8.076;2022-09-27T03:43:19;12.90;99.90
6690;DHT22;3382;51.576;8.076;2022-09-27T03:45:45;12.90;99.90
6690;DHT22;3382;51.576;8.076;2022-09-27T03:48:11;13.80;99.90
6690;DHT22;3382;51.576;8.076;2022-09-27T03:50:37;14.80;99.90
6690;DHT22;3382;51.576;8.076;2022-09-27T03:53:03;15.70;99.90
6690;DHT22;3382;51.576;8.076;2022-09-27T03:55:28;16.50;99.90
6690;DHT22;3382;51.576;8.076;2022-09-27T03:57:54;17.00;99.90
6690;DHT22;3382;51.576;8.076;2022-09-27T04:00:20;17.60;99.90
6690;DHT22;3382;51.576;8.076;2022-09-27T04:02:46;17.90;99.90
6690;DHT22;3382;51.576;8.076;2022-09-27T04:05:11;17.20;99.90
6690;DHT22;3382;51.576;8.076;2022-09-27T04:07:37;16.50;99.90
6690;DHT22;3382;51.576;8.076;2022-09-27T04:10:04;16.30;99.90
6690;DHT22;3382;51.576;8.076;2022-09-27T04:12:30;16.00;99.90
6690;DHT22;3382;51.576;8.076;2022-09-27T04:14:57;15.80;99.90
6690;DHT22;3382;51.576;8.076;2022-09-27T04:17:23;15.50;99.90
6690;DHT22;3382;51.576;8.076;2022-09-27T04:19:50;15.40;99.90
6690;DHT22;3382;51.576;8.076;2022-09-27T04:22:16;15.30;99.90
6690;DHT22;3382;51.576;8.076;2022-09-27T04:24:41;15.40;99.90
6690;DHT22;3382;51.576;8.076;2022-09-27T04:27:07;15.20;99.90
6690;DHT22;3382;51.576;8.076;2022-09-27T04:29:33;15.40;99.90
6690;DHT22;3382;51.576;8.076;2022-09-27T04:31:59;15.60;99.90
6690;DHT22;3382;51.576;8.076;2022-09-27T04:34:24;15.30;99.90
6690;DHT22;3382;51.576;8.076;2022-09-27T04:37:10;15.20;99.90
6690;DHT22;3382;51.576;8.076;2022-09-27T04:39:36;15.10;99.90
6690;DHT22;3382;51.576;8.076;2022-09-27T04:42:04;14.90;99.90
6690;DHT22;3382;51.576;8.076;2022-09-27T04:44:30;14.80;99.90
6690;DHT22;3382;51.576;8.076;2022-09-27T04:46:55;14.70;99.90
6690;DHT22;3382;51.576;8.076;2022-09-27T04:49:21;15.00;99.90
6690;DHT22;3382;51.576;8.076;2022-09-27T04:51:47;15.00;99.90
6690;DHT22;3382;51.576;8.076;2022-09-27T04:54:13;15.70;99.90
6690;DHT22;3382;51.576;8.076;2022-09-27T04:56:38;16.50;99.90
6690;DHT22;3382;51.576;8.076;2022-09-27T04:59:04;17.30;99.90
6690;DHT22;3382;51.576;8.076;2022-09-27T05:01:30;18.00;99.90
6690;DHT22;3382;51.576;8.076;2022-09-27T05:03:55;18.60;99.90
6690;DHT22;3382;51.576;8.076;2022-09-27T05:06:21;19.10;99.90
6690;DHT22;3382;51.576;8.076;2022-09-27T05:08:47;19.60;99.90
6690;DHT22;3382;51.576;8.076;2022-09-27T05:11:12;20.00;99.90
6690;DHT22;3382;51.576;8.076;2022-09-27T05:13:38;20.40;99.90
6690;DHT22;3382;51.576;8.076;2022-09-27T05:16:04;20.70;99.90
6690;DHT22;3382;51.576;8.076;2022-09-27T05:18:30;21.00;99.90
6690;DHT22;3382;51.576;8.076;2022-09-27T05:20:55;21.20;99.90
6690;DHT22;3382;51.576;8.076;2022-09-27T05:23:23;21.40;99.90
6690;DHT22;3382;51.576;8.076;2022-09-27T05:25:49;21.70;99.90
6690;DHT22;3382;51.576;8.076;2022-09-27T05:28:15;21.90;99.90
6690;DHT22;3382;51.576;8.076;2022-09-27T05:30:40;22.00;99.90
6690;DHT22;3382;51.576;8.076;2022-09-27T05:33:06;22.10;99.90
6690;DHT22;3382;51.576;8.076;2022-09-27T05:35:32;22.30;99.90
6690;DHT22;3382;51.576;8.076;2022-09-27T05:37:59;22.40;99.90
6690;DHT22;3382;51.576;8.076;2022-09-27T05:40:25;22.40;99.90
6690;DHT22;3382;51.576;8.076;2022-09-27T05:42:52;22.40;99.90
6690;DHT22;3382;51.576;8.076;2022-09-27T05:45:19;22.40;99.90
6690;DHT22;3382;51.576;8.076;2022-09-27T05:47:54;22.50;99.90
6690;DHT22;3382;51.576;8.076;2022-09-27T05:50:21;22.60;99.90
6690;DHT22;3382;51.576;8.076;2022-09-27T05:52:47;22.80;99.90
6690;DHT22;3382;51.576;8.076;2022-09-27T05:55:13;22.90;99.90
6690;DHT22;3382;51.576;8.076;2022-09-27T05:57:39;22.90;99.90
6690;DHT22;3382;51.576;8.076;2022-09-27T06:00:05;22.80;99.90
6690;DHT22;3382;51.576;8.076;2022-09-27T06:02:31;22.80;99.90
6690;DHT22;3382;51.576;8.076;2022-09-27T06:04:58;22.90;99.90
6690;DHT22;3382;51.576;8.076;2022-09-27T06:07:24;22.90;99.90
6690;DHT22;3382;51.576;8.076;2022-09-27T06:09:50;23.00;99.90
6690;DHT22;3382;51.576;8.076;2022-09-27T06:12:16;23.10;99.90
6690;DHT22;3382;51.576;8.076;2022-09-27T06:14:41;23.20;99.90
6690;DHT22;3382;51.576;8.076;2022-09-27T06:17:07;23.30;99.90
6690;DHT22;3382;51.576;8.076;2022-09-27T06:19:33;23.30;99.90
6690;DHT22;3382;51.576;8.076;2022-09-27T06:21:59;23.40;99.90
6690;DHT22;3382;51.576;8.076;2022-09-27T06:24:25;23.40;99.90
6690;DHT22;3382;51.576;8.076;2022-09-27T06:26:51;23.40;99.90
6690;DHT22;3382;51.576;8.076;2022-09-27T06:29:16;23.40;99.90
6690;DHT22;3382;51.576;8.076;2022-09-27T06:31:42;23.50;99.90
6690;DHT22;3382;51.576;8.076;2022-09-27T06:34:07;23.60;99.90
6690;DHT22;3382;51.576;8.076;2022-09-27T06:36:33;23.60;99.90
6690;DHT22;3382;51.576;8.076;2022-09-27T06:38:59;23.50;99.90
6690;DHT22;3382;51.576;8.076;2022-09-27T06:41:26;23.50;99.90
6690;DHT22;3382;51.576;8.076;2022-09-27T06:43:52;23.50;99.90
6690;DHT22;3382;51.576;8.076;2022-09-27T06:46:17;23.50;99.90
6690;DHT22;3382;51.576;8.076;2022-09-27T06:48:43;23.40;99.90
6690;DHT22;3382;51.576;8.076;2022-09-27T06:51:08;23.40;99.90
6690;DHT22;3382;51.576;8.076;2022-09-27T06:53:34;23.40;99.90
6690;DHT22;3382;51.576;8.076;2022-09-27T06:56:00;23.50;99.90
6690;DHT22;3382;51.576;8.076;2022-09-27T06:58:27;23.40;99.90
6690;DHT22;3382;51.576;8.076;2022-09-27T07:01:12;23.40;99.90
6690;DHT22;3382;51.576;8.076;2022-09-27T07:03:38;23.40;99.90
6690;DHT22;3382;51.576;8.076;2022-09-27T07:06:09;23.40;99.90
6690;DHT22;3382;51.576;8.076;2022-09-27T07:08:36;23.40;99.90
6690;DHT22;3382;51.576;8.076;2022-09-27T07:11:05;23.40;99.90
6690;DHT22;3382;51.576;8.076;2022-09-27T07:13:31;23.40;99.90
6690;DHT22;3382;51.576;8.076;2022-09-27T07:15:59;23.40;99.90
6690;DHT22;3382;51.576;8.076;2022-09-27T07:18:25;23.50;99.90
6690;DHT22;3382;51.576;8.076;2022-09-27T07:20:51;23.50;99.90
6690;DHT22;3382;51.576;8.076;2022-09-27T07:23:18;23.40;99.90
6690;DHT22;3382;51.576;8.076;2022-09-27T07:25:43;23.50;99.90
6690;DHT22;3382;51.576;8.076;2022-09-27T07:28:14;23.50;99.90
6690;DHT22;3382;51.576;8.076;2022-09-27T07:30:40;23.50;99.90
6690;DHT22;3382;51.576;8.076;2022-09-27T07:33:06;23.50;99.90
6690;DHT22;3382;51.576;8.076;2022-09-27T07:35:33;23.50;99.90
6690;DHT22;3382;51.576;8.076;2022-09-27T07:38:02;23.50;99.90
6690;DHT22;3382;51.576;8.076;2022-09-27T07:40:29;23.50;99.90
6690;DHT22;3382;51.576;8.076;2022-09-27T07:42:56;23.50;99.90
6690;DHT22;3382;51.576;8.076;2022-09-27T07:45:23;23.50;99.90
6690;DHT22;3382;51.576;8.076;2022-09-27T07:47:49;23.40;99.90
6690;DHT22;3382;51.576;8.076;2022-09-27T07:50:14;23.40;99.90
6690;DHT22;3382;51.576;8.076;2022-09-27T07:52:41;23.30;99.90
6690;DHT22;3382;51.576;8.076;2022-09-27T07:55:09;23.40;99.90
6690;DHT22;3382;51.576;8.076;2022-09-27T07:57:36;23.30;99.90
6690;DHT22;3382;51.576;8.076;2022-09-27T08:00:07;23.30;99.90
6690;DHT22;3382;51.576;8.076;2022-09-27T08:02:33;23.40;99.90
6690;DHT22;3382;51.576;8.076;2022-09-27T08:04:59;23.30;99.90
6690;DHT22;3382;51.576;8.076;2022-09-27T08:07:25;23.40;99.90
6690;DHT22;3382;51.576;8.076;2022-09-27T08:09:51;23.40;99.90
6690;DHT22;3382;51.576;8.076;2022-09-27T08:12:17;23.30;99.90
6690;DHT22;3382;51.576;8.076;2022-09-27T08:14:42;23.40;99.90
6690;DHT22;3382;51.576;8.076;2022-09-27T08:17:12;23.30;99.90
6690;DHT22;3382;51.576;8.076;2022-09-27T08:19:38;23.30;99.90
6690;DHT22;3382;51.576;8.076;2022-09-27T08:22:04;23.30;99.90
6690;DHT22;3382;51.576;8.076;2022-09-27T08:24:29;23.40;99.90
6690;DHT22;3382;51.576;8.076;2022-09-27T08:26:55;23.30;99.90
6690;DHT22;3382;51.576;8.076;2022-09-27T08:29:21;23.40;99.90
6690;DHT22;3382;51.576;8.076;2022-09-27T08:31:49;23.40;99.90
6690;DHT22;3382;51.576;8.076;2022-09-27T08:34:14;23.40;99.90
6690;DHT22;3382;51.576;8.076;2022-09-27T08:36:42;23.40;99.90
6690;DHT22;3382;51.576;8.076;2022-09-27T08:39:08;23.50;99.90
6690;DHT22;3382;51.576;8.076;2022-09-27T08:52:38;23.60;99.90
6690;DHT22;3382;51.576;8.076;2022-09-27T08:55:16;23.70;99.90
6690;DHT22;3382;51.576;8.076;2022-09-27T08:57:49;23.60;99.90
6690;DHT22;3382;51.576;8.076;2022-09-27T09:00:17;23.60;99.90
6690;DHT22;3382;51.576;8.076;2022-09-27T09:02:43;23.60;99.90
6690;DHT22;3382;51.576;8.076;2022-09-27T09:05:13;23.70;99.90
6690;DHT22;3382;51.576;8.076;2022-09-27T09:19:39;23.60;99.90
6690;DHT22;3382;51.576;8.076;2022-09-27T09:25:09;23.60;99.90
6690;DHT22;3382;51.576;8.076;2022-09-27T09:27:50;23.60;99.90
6690;DHT22;3382;51.576;8.076;2022-09-27T09:30:23;23.60;99.90
6690;DHT22;3382;51.576;8.076;2022-09-27T09:43:52;23.50;99.90
6690;DHT22;3382;51.576;8.076;2022-09-27T09:46:25;23.50;99.90
6690;DHT22;3382;51.576;8.076;2022-09-27T09:49:20;23.50;99.90
6690;DHT22;3382;51.576;8.076;2022-09-27T09:51:52;23.50;99.90
6690;DHT22;3382;51.576;8.076;2022-09-27T09:59:50;23.50;99.90
6690;DHT22;3382;51.576;8.076;2022-09-27T10:02:30;23.50;99.90
6690;DHT22;3382;51.576;8.076;2022-09-27T10:04:57;23.40;99.90
6690;DHT22;3382;51.576;8.076;2022-09-27T10:07:23;23.40;99.90
6690;DHT22;3382;51.576;8.076;2022-09-27T10:09:51;23.40;99.90
6690;DHT22;3382;51.576;8.076;2022-09-27T10:12:18;23.40;99.90
6690;DHT22;3382;51.576;8.076;2022-09-27T10:14:48;23.40;99.90
6690;DHT22;3382;51.576;8.076;2022-09-27T10:17:21;23.40;99.90
6690;DHT22;3382;51.576;8.076;2022-09-27T10:19:49;23.40;99.90
6690;DHT22;3382;51.576;8.076;2022-09-27T10:22:27;23.30;99.90
6690;DHT22;3382;51.576;8.076;2022-09-27T10:25:00;23.30;99.90
6690;DHT22;3382;51.576;8.076;2022-09-27T10:30:25;23.30;99.90
6690;DHT22;3382;51.576;8.076;2022-09-27T10:32:53;23.30;99.90
6690;DHT22;3382;51.576;8.076;2022-09-27T10:35:36;23.30;99.90
6690;DHT22;3382;51.576;8.076;2022-09-27T10:40:48;23.40;99.90
6690;DHT22;3382;51.576;8.076;2022-09-27T10:43:25;23.40;99.90
6690;DHT22;3382;51.576;8.076;2022-09-27T10:45:59;23.40;99.90
6690;DHT22;3382;51.576;8.076;2022-09-27T10:48:27;23.40;99.90
6690;DHT22;3382;51.576;8.076;2022-09-27T10:50:59;23.40;99.90
6690;DHT22;3382;51.576;8.076;2022-09-27T10:53:26;23.40;99.90
6690;DHT22;3382;51.576;8.076;2022-09-27T10:55:53;23.30;99.90
6690;DHT22;3382;51.576;8.076;2022-09-27T10:58:28;23.30;99.90
6690;DHT22;3382;51.576;8.076;2022-09-27T11:01:15;23.40;99.90
6690;DHT22;3382;51.576;8.076;2022-09-27T11:03:52;23.30;99.90
6690;DHT22;3382;51.576;8.076;2022-09-27T11:08:48;23.40;99.90
6690;DHT22;3382;51.576;8.076;2022-09-27T11:16:53;23.40;99.90
6690;DHT22;3382;51.576;8.076;2022-09-27T11:25:11;23.60;99.90
6690;DHT22;3382;51.576;8.076;2022-09-27T11:28:02;23.60;99.90
6690;DHT22;3382;51.576;8.076;2022-09-27T11:33:39;23.60;99.90
6690;DHT22;3382;51.576;8.076;2022-09-27T11:46:55;23.60;99.90
6690;DHT22;3382;51.576;8.076;2022-09-27T11:49:48;23.60;99.90
6690;DHT22;3382;51.576;8.076;2022-09-27T11:52:36;23.60;99.90
6690;DHT22;3382;51.576;8.076;2022-09-27T12:08:59;23.60;99.90
6690;DHT22;3382;51.576;8.076;2022-09-27T12:11:43;23.60;99.90
6690;DHT22;3382;51.576;8.076;2022-09-27T12:16:42;23.50;99.90
6690;DHT22;3382;51.576;8.076;2022-09-27T12:19:21;23.60;99.90
6690;DHT22;3382;51.576;8.076;2022-09-27T12:21:47;23.60;99.90
6690;DHT22;3382;51.576;8.076;2022-09-27T12:24:18;23.50;99.90
6690;DHT22;3382;51.576;8.076;2022-09-27T12:26:45;23.60;99.90
6690;DHT22;3382;51.576;8.076;2022-09-27T12:29:25;23.60;99.90
6690;DHT22;3382;51.576;8.076;2022-09-27T12:37:26;23.80;99.90
6690;DHT22;3382;51.576;8.076;2022-09-27T12:40:01;23.70;99.90
6690;DHT22;3382;51.576;8.076;2022-09-27T12:51:01;23.80;99.90
6690;DHT22;3382;51.576;8.076;2022-09-27T13:01:59;23.90;99.90
6690;DHT22;3382;51.576;8.076;2022-09-27T13:07:45;23.80;99.90
6690;DHT22;3382;51.576;8.076;2022-09-27T13:13:14;23.60;99.90
6690;DHT22;3382;51.576;8.076;2022-09-27T13:15:43;23.40;99.90
6690;DHT22;3382;51.576;8.076;2022-09-27T13:20:53;23.70;99.90
6690;DHT22;3382;51.576;8.076;2022-09-27T13:47:01;23.60;99.90
6690;DHT22;3382;51.576;8.076;2022-09-27T13:49:39;23.80;99.90
6690;DHT22;3382;51.576;8.076;2022-09-27T13:52:28;23.90;99.90
6690;DHT22;3382;51.576;8.076;2022-09-27T13:54:59;24.00;99.90
6690;DHT22;3382;51.576;8.076;2022-09-27T14:00:26;24.00;99.90
6690;DHT22;3382;51.576;8.076;2022-09-27T14:05:42;24.20;99.90
6690;DHT22;3382;51.576;8.076;2022-09-27T14:08:39;24.20;99.90
6690;DHT22;3382;51.576;8.076;2022-09-27T14:11:12;24.20;99.90
6690;DHT22;3382;51.576;8.076;2022-09-27T14:13:42;24.20;99.90
6690;DHT22;3382;51.576;8.076;2022-09-27T14:16:14;24.20;99.90
6690;DHT22;3382;51.576;8.076;2022-09-27T14:18:54;24.20;99.90
6690;DHT22;3382;51.576;8.076;2022-09-27T14:21:32;24.20;99.90
6690;DHT22;3382;51.576;8.076;2022-09-27T14:24:26;24.20;99.90
6690;DHT22;3382;51.576;8.076;2022-09-27T14:27:17;24.10;99.90
6690;DHT22;3382;51.576;8.076;2022-09-27T14:29:49;24.10;99.90
6690;DHT22;3382;51.576;8.076;2022-09-27T14:32:20;23.70;99.90
6690;DHT22;3382;51.576;8.076;2022-09-27T14:35:12;22.70;99.90
6690;DHT22;3382;51.576;8.076;2022-09-27T14:38:01;22.30;99.90
6690;DHT22;3382;51.576;8.076;2022-09-27T14:40:27;21.80;99.90
6690;DHT22;3382;51.576;8.076;2022-09-27T14:42:55;20.90;99.90
6690;DHT22;3382;51.576;8.076;2022-09-27T14:45:35;20.60;99.90
6690;DHT22;3382;51.576;8.076;2022-09-27T14:48:16;20.50;99.90
6690;DHT22;3382;51.576;8.076;2022-09-27T14:50:58;20.30;99.90
6690;DHT22;3382;51.576;8.076;2022-09-27T14:53:36;19.90;99.90
6690;DHT22;3382;51.576;8.076;2022-09-27T14:56:02;19.40;99.90
6690;DHT22;3382;51.576;8.076;2022-09-27T14:58:28;19.30;99.90
6690;DHT22;3382;51.576;8.076;2022-09-27T15:00:55;19.70;99.90
6690;DHT22;3382;51.576;8.076;2022-09-27T15:03:30;19.70;99.90
6690;DHT22;3382;51.576;8.076;2022-09-27T15:05:57;19.20;99.90
6690;DHT22;3382;51.576;8.076;2022-09-27T15:08:26;18.70;99.90
6690;DHT22;3382;51.576;8.076;2022-09-27T15:10:52;18.20;99.90
6690;DHT22;3382;51.576;8.076;2022-09-27T15:13:19;17.80;99.90
6690;DHT22;3382;51.576;8.076;2022-09-27T15:15:46;17.60;99.90
6690;DHT22;3382;51.576;8.076;2022-09-27T15:18:42;17.50;99.90
6690;DHT22;3382;51.576;8.076;2022-09-27T15:21:31;17.40;99.90
6690;DHT22;3382;51.576;8.076;2022-09-27T15:23:55;17.30;99.90
6690;DHT22;3382;51.576;8.076;2022-09-27T15:26:32;17.10;99.90
6690;DHT22;3382;51.576;8.076;2022-09-27T15:29:00;16.90;99.90
6690;DHT22;3382;51.576;8.076;2022-09-27T15:31:34;16.60;99.90
6690;DHT22;3382;51.576;8.076;2022-09-27T15:34:00;16.30;99.90
6690;DHT22;3382;51.576;8.076;2022-09-27T15:39:18;16.00;99.90
6690;DHT22;3382;51.576;8.076;2022-09-27T15:44:50;15.70;99.90
6690;DHT22;3382;51.576;8.076;2022-09-27T15:52:53;15.20;99.90
6690;DHT22;3382;51.576;8.076;2022-09-27T15:55:24;15.10;99.90
6690;DHT22;3382;51.576;8.076;2022-09-27T15:57:54;14.90;99.90
6690;DHT22;3382;51.576;8.076;2022-09-27T16:00:22;14.70;99.90
6690;DHT22;3382;51.576;8.076;2022-09-27T16:02:48;14.50;99.90
6690;DHT22;3382;51.576;8.076;2022-09-27T16:05:13;14.30;99.90
6690;DHT22;3382;51.576;8.076;2022-09-27T16:07:39;14.20;99.90
6690;DHT22;3382;51.576;8.076;2022-09-27T16:10:16;14.20;99.90
6690;DHT22;3382;51.576;8.076;2022-09-27T16:12:42;14.20;99.90
6690;DHT22;3382;51.576;8.076;2022-09-27T16:15:10;14.00;99.90
6690;DHT22;3382;51.576;8.076;2022-09-27T16:17:36;13.90;99.90
6690;DHT22;3382;51.576;8.076;2022-09-27T16:20:08;13.90;99.90
6690;DHT22;3382;51.576;8.076;2022-09-27T16:22:34;13.80;99.90
6690;DHT22;3382;51.576;8.076;2022-09-27T16:25:00;13.80;99.90
6690;DHT22;3382;51.576;8.076;2022-09-27T16:27:26;13.80;99.90
6690;DHT22;3382;51.576;8.076;2022-09-27T16:29:52;13.80;99.90
6690;DHT22;3382;51.576;8.076;2022-09-27T16:32:18;13.60;99.90
6690;DHT22;3382;51.576;8.076;2022-09-27T16:34:44;13.60;99.90
6690;DHT22;3382;51.576;8.076;2022-09-27T16:37:10;13.60;99.90
6690;DHT22;3382;51.576;8.076;2022-09-27T16:39:35;13.50;99.90
6690;DHT22;3382;51.576;8.076;2022-09-27T16:42:01;13.40;99.90
6690;DHT22;3382;51.576;8.076;2022-09-27T16:44:32;13.40;99.90
6690;DHT22;3382;51.576;8.076;2022-09-27T16:47:03;13.40;99.90
6690;DHT22;3382;51.576;8.076;2022-09-27T16:49:29;13.40;99.90
6690;DHT22;3382;51.576;8.076;2022-09-27T16:52:14;13.40;99.90
6690;DHT22;3382;51.576;8.076;2022-09-27T16:54:40;14.10;99.90
6690;DHT22;3382;51.576;8.076;2022-09-27T16:57:07;14.20;99.90
6690;DHT22;3382;51.576;8.076;2022-09-27T16:59:33;13.80;99.90
6690;DHT22;3382;51.576;8.076;2022-09-27T17:01:58;13.70;99.90
6690;DHT22;3382;51.576;8.076;2022-09-27T17:04:25;13.80;99.90
6690;DHT22;3382;51.576;8.076;2022-09-27T17:06:52;13.60;99.90
6690;DHT22;3382;51.576;8.076;2022-09-27T17:09:22;13.50;99.90
6690;DHT22;3382;51.576;8.076;2022-09-27T17:11:48;13.40;99.90
6690;DHT22;3382;51.576;8.076;2022-09-27T17:14:14;13.30;99.90
6690;DHT22;3382;51.576;8.076;2022-09-27T17:16:44;13.30;99.90
6690;DHT22;3382;51.576;8.076;2022-09-27T17:19:11;13.30;99.90
6690;DHT22;3382;51.576;8.076;2022-09-27T17:21:37;13.20;99.90
6690;DHT22;3382;51.576;8.076;2022-09-27T17:24:03;13.10;99.90
6690;DHT22;3382;51.576;8.076;2022-09-27T17:26:29;13.10;99.90
6690;DHT22;3382;51.576;8.076;2022-09-27T17:28:57;13.10;99.90
6690;DHT22;3382;51.576;8.076;2022-09-27T17:31:25;13.00;99.90
6690;DHT22;3382;51.576;8.076;2022-09-27T17:33:51;13.00;99.90
6690;DHT22;3382;51.576;8.076;2022-09-27T17:36:28;13.00;99.90
6690;DHT22;3382;51.576;8.076;2022-09-27T17:38:56;13.10;99.90
6690;DHT22;3382;51.576;8.076;2022-09-27T17:41:25;13.00;99.90
6690;DHT22;3382;51.576;8.076;2022-09-27T17:43:52;13.00;99.90
6690;DHT22;3382;51.576;8.076;2022-09-27T17:46:23;12.90;99.90
6690;DHT22;3382;51.576;8.076;2022-09-27T17:48:49;12.90;99.90
6690;DHT22;3382;51.576;8.076;2022-09-27T17:51:36;12.90;99.90
6690;DHT22;3382;51.576;8.076;2022-09-27T17:54:03;12.80;99.90
6690;DHT22;3382;51.576;8.076;2022-09-27T17:56:30;12.80;99.90
6690;DHT22;3382;51.576;8.076;2022-09-27T17:58:58;12.70;99.90
6690;DHT22;3382;51.576;8.076;2022-09-27T18:01:25;12.70;99.90
6690;DHT22;3382;51.576;8.076;2022-09-27T18:03:52;12.80;99.90
6690;DHT22;3382;51.576;8.076;2022-09-27T18:06:19;12.70;99.90
6690;DHT22;3382;51.576;8.076;2022-09-27T18:08:44;12.70;99.90
6690;DHT22;3382;51.576;8.076;2022-09-27T18:11:15;12.60;99.90
6690;DHT22;3382;51.576;8.076;2022-09-27T18:13:42;12.60;99.90
6690;DHT22;3382;51.576;8.076;2022-09-27T18:16:13;12.60;99.90
6690;DHT22;3382;51.576;8.076;2022-09-27T18:18:40;12.60;99.90
6690;DHT22;3382;51.576;8.076;2022-09-27T18:21:08;12.50;99.90
6690;DHT22;3382;51.576;8.076;2022-09-27T18:23:36;12.40;99.90
6690;DHT22;3382;51.576;8.076;2022-09-27T18:26:02;12.40;99.90
6690;DHT22;3382;51.576;8.076;2022-09-27T18:28:33;12.40;99.90
6690;DHT22;3382;51.576;8.076;2022-09-27T18:31:04;12.30;99.90
6690;DHT22;3382;51.576;8.076;2022-09-27T18:33:32;12.30;99.90
6690;DHT22;3382;51.576;8.076;2022-09-27T18:36:18;12.30;99.90
6690;DHT22;3382;51.576;8.076;2022-09-27T18:38:45;12.20;99.90
6690;DHT22;3382;51.576;8.076;2022-09-27T18:41:13;12.00;99.90
6690;DHT22;3382;51.576;8.076;2022-09-27T18:43:40;12.10;99.90
6690;DHT22;3382;51.576;8.076;2022-09-27T18:46:08;12.00;99.90
6690;DHT22;3382;51.576;8.076;2022-09-27T18:48:36;12.00;99.90
6690;DHT22;3382;51.576;8.076;2022-09-27T18:51:06;12.00;99.90
6690;DHT22;3382;51.576;8.076;2022-09-27T18:53:33;12.00;99.90
6690;DHT22;3382;51.576;8.076;2022-09-27T18:56:15;12.00;99.90
6690;DHT22;3382;51.576;8.076;2022-09-27T18:58:42;12.00;99.90
6690;DHT22;3382;51.576;8.076;2022-09-27T19:01:15;12.00;99.90
6690;DHT22;3382;51.576;8.076;2022-09-27T19:03:42;12.00;99.90
6690;DHT22;3382;51.576;8.076;2022-09-27T19:06:16;12.00;99.90
6690;DHT22;3382;51.576;8.076;2022-09-27T19:08:43;12.00;99.90
6690;DHT22;3382;51.576;8.076;2022-09-27T19:11:14;11.90;99.90
6690;DHT22;3382;51.576;8.076;2022-09-27T19:13:41;11.90;99.90
6690;DHT22;3382;51.576;8.076;2022-09-27T19:16:08;11.90;99.90
6690;DHT22;3382;51.576;8.076;2022-09-27T19:18:36;11.90;99.90
6690;DHT22;3382;51.576;8.076;2022-09-27T19:21:10;11.90;99.90
6690;DHT22;3382;51.576;8.076;2022-09-27T19:23:37;11.80;99.90
6690;DHT22;3382;51.576;8.076;2022-09-27T19:26:04;11.80;99.90
6690;DHT22;3382;51.576;8.076;2022-09-27T19:28:35;11.80;99.90
6690;DHT22;3382;51.576;8.076;2022-09-27T19:31:05;11.80;99.90
6690;DHT22;3382;51.576;8.076;2022-09-27T19:33:32;11.80;99.90
6690;DHT22;3382;51.576;8.076;2022-09-27T19:36:04;11.70;99.90
6690;DHT22;3382;51.576;8.076;2022-09-27T19:38:30;11.70;99.90
6690;DHT22;3382;51.576;8.076;2022-09-27T19:40:56;11.70;99.90
6690;DHT22;3382;51.576;8.076;2022-09-27T19:43:22;11.70;99.90
6690;DHT22;3382;51.576;8.076;2022-09-27T19:45:47;11.70;99.90
6690;DHT22;3382;51.576;8.076;2022-09-27T19:48:13;11.70;99.90
6690;DHT22;3382;51.576;8.076;2022-09-27T19:50:39;11.70;99.90
6690;DHT22;3382;51.576;8.076;2022-09-27T19:53:05;11.70;99.90
6690;DHT22;3382;51.576;8.076;2022-09-27T19:55:32;11.60;99.90